Airfield :
LOGIN :

Register | Disclaimer

   EN    FR    IT 

 










Legend :    VFR   Marginal VFR   IFR   Intensive IFR   Very Intensive IFR
Visi :
Ceiling :
>= 8 km
>= 3000ft
5 to 8 km
1000 to 3000 ft
1500m to 5 km
500 to 1000 ft
800 to 1500m
200 to 500 ft
< 800m
< 200 ft
Symbols :   Thunderstorms  Fog  Heavy snow  Heavy precipitations  Wind > 20 kt
SIGMETs :     Misc.  Thunderstorms  Icing  Turbulence  Mountain Waves  Volcanic Ashes






- Airport Elevation : 1768 ft


LEHC - Huesca Pirineos

CURRENT METAR :
  • 281600Z AUTO 11003KT 350V160 CAVOK 26/10 Q1021

EXPIRED METARs :
  • 281530Z AUTO 17002KT CAVOK 26/10 Q1022
  • 281500Z AUTO 23003KT CAVOK 26/11 Q1022
  • 281430Z AUTO 10004KT 010V180 CAVOK 26/10 Q1022
  • 281400Z AUTO 12004KT CAVOK 25/10 Q1023
  • 281330Z AUTO 23005KT CAVOK 25/09 Q1023

TAF TAF LEHC
Valid from the 28 at 15:00 until the 29 at 15:00 UTC


281400Z 2815/2915 VRB05KT 9999 FEW050 TX30/2914Z TN15/2906Z
BECMG 2820/2823 08007KT
BECMG 2906/2909 21007KT



MET'MAP, your aeronautical weather chart ! - Copyright ORBIFLY December 2007 - Disclaimer

ORBIFLY MET'MAP TEAM :

Programming & Development : Alexandra Zaïnal
Concept & original design : Baudouin d'Aumeries
Assistance for programming : Marc-Olivier Méhu
Technical & hardware support : Manuel Goepfert

Contact : metmap@orbifly.com




SOURCES & CREDITS :

   NOAA